KGLE/GLE METAR and TAF weather

Enter ICAO airport designator
Station Type Date Time Source
KGLE METAR 2022/12/04 04:55 UTC NOAA

KGLE 040455Z AUTO 02003KT 10SM OVC026 06/M05 A3041 RMK AO2 T00601054


Station Type Date Time Source
KGLE Decoded METAR 2022/12/04 04:55 UTC NOAA

Gainesville, Gainesville Municipal Airport, TX, United States (KGLE) 33-39-05N 097-11-49W
Dec 03, 2022 - 11:55 PM EST / 2022.12.04 0455 UTC
Wind: from the NNE (020 degrees) at 3 MPH (3 KT):0
Visibility: 10 mile(s):0
Sky conditions: overcast
Temperature: 42.8 F (6.0 C)
Dew Point: 22.3 F (-5.4 C)
Relative Humidity: 43%
Pressure (altimeter): 30.41 in. Hg (1029 hPa)
ob: KGLE 040455Z AUTO 02003KT 10SM OVC026 06/M05 A3041 RMK AO2 T00601054
cycle: 5

Station Type Date Time Source
KGLE TAF UTC NOAA

Error!

Example: see airport list